Terminal Aerodrome Forecast
Issued by NWS

Home | Current Version | Previous Version | Text Only | Print | Product List | Glossary On
Versions: 1 2 3 4 5 6 7 8 9 10 11 12 13 14 15 16 17 18 19 20 21 22 23 24 25 26 27 28
000
FTUS42 KCAE 251741
TAFOGB
TAF
KOGB 251741Z 2518/2618 24012G20KT P6SM SCT025 OVC035
     FM252100 23012KT P6SM -SHRA BKN025 OVC035
     FM260100 23009KT 6SM -SHRA BR SCT025 OVC050
     FM260500 VRB04KT 5SM -RA BR SCT010 BKN025 OVC040
     FM261000 VRB04KT 3SM -SHRA BR OVC009=

USA.gov is the U.S. government's official web portal to all federal, state and local government web resources and services.